Time;durP1;ratioP1;P1;durP2;ratioP2;P2;SDS_P1;SDS_P2;PMS_P1;PMS_P2;Temp;Humidity;BMP_temperature;BMP_pressure;BME280_temperature;BME280_humidity;BME280_pressure;Samples;Min_cycle;Max_cycle;Signal;HPM_P1;HPM_P2
2022/05/15 00:01:44;;;;;;;7.63;6.82;;;23.10;99.90;;;;;;5065639;28;20027;-66
2022/05/15 00:04:11;;;;;;;7.43;6.72;;;23.10;99.90;;;;;;5065465;28;20009;-69
2022/05/15 00:06:38;;;;;;;8.30;7.47;;;23.00;99.90;;;;;;5064796;28;20059;-67
2022/05/15 00:09:05;;;;;;;7.38;6.78;;;23.00;99.90;;;;;;5064383;28;20078;-68
2022/05/15 00:11:33;;;;;;;4.95;4.40;;;23.10;99.90;;;;;;5054420;28;20488;-66
2022/05/15 00:14:02;;;;;;;4.45;3.85;;;23.50;99.90;;;;;;5058665;28;20131;-71
2022/05/15 00:16:34;;;;;;;7.15;6.45;;;23.90;99.90;;;;;;5063411;28;20897;-70
2022/05/15 00:19:01;;;;;;;5.20;4.70;;;24.00;99.90;;;;;;5060239;28;20020;-66
2022/05/15 00:21:28;;;;;;;6.88;5.50;;;24.00;99.90;;;;;;5057571;28;20043;-71
2022/05/15 00:23:55;;;;;;;7.30;5.57;;;24.10;99.90;;;;;;5063361;28;20021;-67
2022/05/15 00:26:22;;;;;;;9.20;6.10;;;24.10;99.90;;;;;;5066434;28;20043;-67
2022/05/15 00:28:49;;;;;;;5.57;5.07;;;24.20;99.90;;;;;;5066392;28;20045;-66
2022/05/15 00:31:16;;;;;;;5.90;5.30;;;24.20;99.90;;;;;;5062286;28;20021;-66
2022/05/15 00:33:44;;;;;;;6.25;5.63;;;24.30;99.90;;;;;;5064013;28;20040;-66
2022/05/15 00:36:12;;;;;;;6.90;5.68;;;24.20;99.90;;;;;;5063985;28;20023;-66
2022/05/15 00:38:39;;;;;;;6.22;5.47;;;24.20;99.90;;;;;;5064248;28;20123;-68
2022/05/15 00:41:07;;;;;;;5.47;4.55;;;24.20;99.90;;;;;;5060759;28;20036;-69
2022/05/15 00:43:36;;;;;;;6.85;5.55;;;24.50;99.90;;;;;;5061622;28;20029;-70
2022/05/15 00:46:05;;;;;;;5.35;4.38;;;24.40;99.90;;;;;;5060399;28;20033;-68
2022/05/15 00:48:33;;;;;;;7.80;5.15;;;24.60;99.90;;;;;;5060931;28;20033;-68
2022/05/15 00:51:06;;;;;;;6.05;4.40;;;24.70;99.90;;;;;;5058282;28;20433;-68
2022/05/15 00:53:34;;;;;;;7.07;5.95;;;24.80;99.90;;;;;;5059919;28;20024;-65
2022/05/15 00:56:03;;;;;;;7.70;5.13;;;24.60;99.90;;;;;;5063787;28;20550;-68
2022/05/15 00:58:38;;;;;;;5.55;5.00;;;24.80;99.90;;;;;;5060976;28;20383;-65
2022/05/15 01:01:06;;;;;;;7.10;3.80;;;24.90;99.90;;;;;;5056937;28;20072;-68
2022/05/15 01:03:34;;;;;;;7.25;4.00;;;24.80;99.90;;;;;;5063083;28;20047;-66
2022/05/15 01:06:01;;;;;;;6.00;3.88;;;24.60;99.90;;;;;;5064591;28;20070;-71
2022/05/15 01:08:30;;;;;;;7.75;4.82;;;24.50;99.90;;;;;;5062600;28;20025;-69
2022/05/15 01:11:01;;;;;;;9.45;5.40;;;24.30;99.90;;;;;;5043760;28;20363;-68
2022/05/15 01:13:34;;;;;;;9.10;5.20;;;24.20;99.90;;;;;;5056062;28;20695;-65
2022/05/15 01:16:00;;;;;;;;;;;24.10;99.90;;;;;;5060460;28;20089;-68
2022/05/15 01:18:32;;;;;;;5.93;3.85;;;24.00;99.90;;;;;;5058781;28;19920;-68
2022/05/15 01:21:00;;;;;;;6.80;4.33;;;24.10;99.90;;;;;;5058450;28;20740;-68
2022/05/15 01:23:31;;;;;;;6.38;3.92;;;24.20;99.90;;;;;;5059457;28;20039;-70
2022/05/15 01:25:58;;;;;;;7.55;4.72;;;24.20;99.90;;;;;;5063235;28;20104;-68
2022/05/15 01:28:27;;;;;;;16.17;12.73;;;24.40;99.90;;;;;;5063004;28;20028;-68
2022/05/15 01:30:57;;;;;;;8.23;5.47;;;25.20;99.90;;;;;;5059604;28;20039;-71
2022/05/15 01:33:24;;;;;;;7.78;4.55;;;25.60;99.90;;;;;;5060283;28;20029;-70
2022/05/15 01:35:51;;;;;;;8.35;4.45;;;25.80;99.90;;;;;;5060828;28;20028;-67
2022/05/15 01:38:18;;;;;;;10.63;5.65;;;26.00;99.90;;;;;;5060694;28;20047;-67
2022/05/15 01:40:47;;;;;;;8.98;4.55;;;26.10;99.90;;;;;;5059847;28;20031;-71
2022/05/15 01:43:13;;;;;;;11.07;6.70;;;26.00;99.90;;;;;;5058990;28;20522;-69
2022/05/15 01:45:40;;;;;;;10.50;5.88;;;25.80;99.90;;;;;;5060732;28;20066;-68
2022/05/15 01:48:08;;;;;;;10.90;6.47;;;25.80;99.90;;;;;;5056223;28;20028;-71
2022/05/15 01:50:35;;;;;;;11.15;5.72;;;25.80;99.90;;;;;;5052667;28;20722;-68
2022/05/15 01:53:03;;;;;;;10.85;6.68;;;25.80;99.90;;;;;;5033480;28;20035;-75
2022/05/15 01:55:29;;;;;;;10.93;5.63;;;25.80;99.90;;;;;;5057219;28;20483;-70
2022/05/15 01:57:56;;;;;;;13.23;6.53;;;25.70;99.90;;;;;;5055226;28;20115;-75
2022/05/15 02:00:26;;;;;;;12.05;8.23;;;25.70;99.90;;;;;;5051600;28;20153;-68
2022/05/15 02:02:53;;;;;;;10.55;7.82;;;25.70;99.90;;;;;;5051853;28;20372;-74
2022/05/15 02:05:21;;;;;;;10.90;5.88;;;25.70;99.90;;;;;;5048695;28;20035;-72
2022/05/15 02:07:49;;;;;;;7.55;5.47;;;25.70;99.90;;;;;;5054864;28;20040;-74
2022/05/15 02:10:16;;;;;;;13.80;4.93;;;25.60;99.90;;;;;;5048708;28;20563;-69
2022/05/15 02:12:43;;;;;;;8.27;4.63;;;25.40;99.90;;;;;;5055855;28;20021;-75
2022/05/15 02:15:11;;;;;;;9.93;5.65;;;25.30;99.90;;;;;;5051979;28;20431;-72
2022/05/15 02:17:38;;;;;;;6.78;4.03;;;25.40;99.90;;;;;;5053955;28;20887;-69
2022/05/15 02:20:06;;;;;;;8.02;3.95;;;25.50;99.90;;;;;;5052565;28;20033;-68
2022/05/15 02:22:33;;;;;;;4.72;3.17;;;25.50;99.90;;;;;;5054487;28;20021;-74
2022/05/15 02:25:00;;;;;;;5.22;3.53;;;25.40;99.90;;;;;;5053340;28;20032;-75
2022/05/15 02:27:27;;;;;;;6.38;4.10;;;25.40;99.90;;;;;;5051048;28;20078;-75
2022/05/15 02:29:54;;;;;;;4.95;3.63;;;25.40;99.90;;;;;;5054042;28;20036;-68
2022/05/15 02:32:21;;;;;;;5.32;4.03;;;25.30;99.90;;;;;;5053382;28;20070;-68
2022/05/15 02:34:48;;;;;;;4.10;2.85;;;25.20;99.90;;;;;;5052203;28;20028;-73
2022/05/15 02:37:15;;;;;;;5.05;3.00;;;25.20;99.90;;;;;;5049713;28;20403;-67
2022/05/15 02:39:42;;;;;;;5.82;3.17;;;25.20;99.90;;;;;;5035066;28;20365;-75
2022/05/15 02:42:09;;;;;;;4.55;3.35;;;25.20;99.90;;;;;;5035355;28;20032;-70
2022/05/15 02:44:36;;;;;;;3.90;2.88;;;25.10;99.90;;;;;;5038656;28;20022;-69
2022/05/15 02:47:04;;;;;;;5.93;2.95;;;25.10;99.90;;;;;;5004619;28;20021;-75
2022/05/15 02:52:16;;;;;;;5.35;2.70;;;25.00;99.90;;;;;;5029186;28;20643;-72
2022/05/15 02:54:43;;;;;;;4.93;2.85;;;25.10;99.90;;;;;;5034260;28;20029;-64
2022/05/15 02:57:11;;;;;;;5.72;2.72;;;25.10;99.90;;;;;;5031377;28;20055;-72
2022/05/15 02:59:39;;;;;;;3.05;2.38;;;25.10;99.90;;;;;;5033019;28;20032;-70
2022/05/15 03:02:06;;;;;;;3.25;2.25;;;25.20;99.90;;;;;;5027122;28;20022;-65
2022/05/15 03:04:35;;;;;;;4.90;2.78;;;25.30;99.90;;;;;;5033565;28;20032;-67
2022/05/15 03:07:01;;;;;;;3.42;2.47;;;25.30;99.90;;;;;;5029741;28;20029;-70
2022/05/15 03:09:28;;;;;;;3.83;3.03;;;25.40;99.90;;;;;;5029345;28;20029;-67
2022/05/15 03:11:55;;;;;;;3.25;2.67;;;25.40;99.90;;;;;;5031317;28;20041;-75
2022/05/15 03:14:22;;;;;;;5.45;3.13;;;25.50;99.90;;;;;;5030875;28;20136;-65
2022/05/15 03:16:49;;;;;;;3.80;3.13;;;25.60;99.90;;;;;;5030432;28;20133;-71
2022/05/15 03:19:16;;;;;;;4.38;3.08;;;25.50;99.90;;;;;;5028216;28;20009;-70
2022/05/15 03:21:43;;;;;;;3.70;3.30;;;25.50;99.90;;;;;;5031896;28;20578;-65
2022/05/15 03:24:13;;;;;;;4.32;2.80;;;25.70;99.90;;;;;;5027102;28;20045;-70
2022/05/15 03:26:45;;;;;;;5.45;3.20;;;25.70;99.90;;;;;;5029702;28;20025;-65
2022/05/15 03:29:13;;;;;;;8.77;5.57;;;25.80;99.90;;;;;;5028459;28;20099;-70
2022/05/15 03:31:41;;;;;;;4.72;3.58;;;25.80;99.90;;;;;;5031544;28;20051;-70
2022/05/15 03:34:10;;;;;;;3.83;3.15;;;25.80;99.90;;;;;;5027681;28;20029;-70
2022/05/15 03:36:39;;;;;;;3.47;2.83;;;25.60;99.90;;;;;;5032424;28;20055;-70
2022/05/15 03:39:10;;;;;;;2.70;2.50;;;25.60;99.90;;;;;;5050563;28;20045;-65
2022/05/15 03:41:37;;;;;;;3.28;2.60;;;25.60;99.90;;;;;;5053502;28;20035;-64
2022/05/15 03:44:05;;;;;;;3.92;2.70;;;25.40;99.90;;;;;;5055518;28;20021;-66
2022/05/15 03:46:33;;;;;;;3.63;2.50;;;25.20;99.90;;;;;;5033495;28;20028;-64
2022/05/15 03:49:00;;;;;;;3.92;2.65;;;25.10;99.90;;;;;;5037135;28;20079;-65
2022/05/15 03:51:27;;;;;;;3.63;2.88;;;24.90;99.90;;;;;;5048479;28;20039;-65
2022/05/15 03:53:54;;;;;;;5.28;3.85;;;24.80;99.90;;;;;;5050183;28;20033;-70
2022/05/15 03:56:49;;;;;;;4.97;2.80;;;24.80;99.90;;;;;;5051691;28;20021;-73
2022/05/15 03:59:11;;;;;;;4.22;2.70;;;24.90;99.90;;;;;;5051913;28;20127;-66
2022/05/15 04:01:38;;;;;;;3.85;2.78;;;24.90;99.90;;;;;;5051280;28;20331;-68
2022/05/15 04:04:06;;;;;;;2.60;2.08;;;25.00;99.90;;;;;;5051474;28;20024;-77
2022/05/15 04:06:33;;;;;;;2.65;2.17;;;25.00;99.90;;;;;;5052399;28;20426;-76
2022/05/15 04:09:00;;;;;;;3.45;2.10;;;24.90;99.90;;;;;;5052688;28;20017;-65
2022/05/15 04:11:27;;;;;;;4.20;2.30;;;24.90;99.90;;;;;;4699445;28;10000099;-71
2022/05/15 04:13:54;;;;;;;2.97;2.03;;;24.90;99.90;;;;;;5052058;28;20029;-65
2022/05/15 04:16:21;;;;;;;4.47;2.53;;;24.90;99.90;;;;;;5049948;28;20070;-65
2022/05/15 04:18:48;;;;;;;3.17;2.28;;;25.00;99.90;;;;;;5048585;28;20020;-71
2022/05/15 04:21:14;;;;;;;3.83;2.40;;;25.00;99.90;;;;;;5051150;28;20025;-65
2022/05/15 04:23:41;;;;;;;2.95;2.22;;;25.00;99.90;;;;;;5051642;28;20104;-76
2022/05/15 04:26:08;;;;;;;3.72;2.75;;;24.80;99.90;;;;;;5052033;28;20025;-66
2022/05/15 04:28:36;;;;;;;4.40;2.25;;;24.80;99.90;;;;;;5052735;28;20013;-71
2022/05/15 04:31:03;;;;;;;4.70;2.42;;;24.70;99.90;;;;;;5052518;28;20036;-70
2022/05/15 04:33:30;;;;;;;2.25;2.00;;;24.60;99.90;;;;;;5051321;28;20056;-67
2022/05/15 04:35:58;;;;;;;3.08;2.40;;;24.40;99.90;;;;;;5053141;28;20024;-74
2022/05/15 04:38:25;;;;;;;3.78;2.33;;;24.30;99.90;;;;;;5051303;28;20045;-70
2022/05/15 04:40:52;;;;;;;2.30;1.98;;;24.30;99.90;;;;;;5053534;28;20466;-65
2022/05/15 04:43:19;;;;;;;2.75;2.30;;;24.20;99.90;;;;;;5052292;28;20021;-65
2022/05/15 04:45:47;;;;;;;2.88;2.40;;;24.20;99.90;;;;;;5055291;28;20024;-73
2022/05/15 04:48:14;;;;;;;2.95;2.28;;;24.00;99.90;;;;;;5056608;28;20037;-66
2022/05/15 04:50:42;;;;;;;4.15;2.58;;;24.00;99.90;;;;;;5055184;28;20809;-67
2022/05/15 04:53:09;;;;;;;5.38;2.85;;;23.90;99.90;;;;;;5040333;28;20028;-75
2022/05/15 04:55:36;;;;;;;4.75;2.80;;;23.90;99.90;;;;;;5032673;28;20036;-75
2022/05/15 04:58:03;;;;;;;7.53;3.05;;;23.90;99.90;;;;;;5053537;28;20097;-66
2022/05/15 05:00:30;;;;;;;3.47;2.75;;;23.90;99.90;;;;;;5053470;28;20404;-73
2022/05/15 05:02:57;;;;;;;6.50;4.22;;;23.70;99.90;;;;;;5049230;28;20028;-67
2022/05/15 05:05:24;;;;;;;4.57;3.53;;;23.70;99.90;;;;;;5054114;28;20135;-74
2022/05/15 05:07:51;;;;;;;4.68;3.45;;;23.60;99.90;;;;;;5050291;28;20020;-74
2022/05/15 05:10:19;;;;;;;5.93;4.13;;;23.30;99.90;;;;;;5053651;28;20986;-64
2022/05/15 05:12:46;;;;;;;5.75;3.55;;;23.20;99.90;;;;;;5052878;28;20073;-73
2022/05/15 05:15:13;;;;;;;5.28;3.13;;;23.20;99.90;;;;;;5052018;28;20032;-64
2022/05/15 05:17:41;;;;;;;4.80;3.63;;;23.00;99.90;;;;;;5053484;28;20032;-71
2022/05/15 05:20:10;;;;;;;5.03;3.97;;;22.90;99.90;;;;;;5032878;28;20050;-72
2022/05/15 05:22:37;;;;;;;4.90;3.75;;;23.00;99.90;;;;;;5051920;28;20028;-74
2022/05/15 05:25:05;;;;;;;4.82;4.00;;;23.00;99.90;;;;;;5054321;28;20086;-65
2022/05/15 05:27:32;;;;;;;4.80;4.25;;;23.10;99.90;;;;;;5051738;28;20024;-65
2022/05/15 05:29:59;;;;;;;5.53;3.60;;;23.10;99.90;;;;;;5054172;28;20544;-65
2022/05/15 05:32:26;;;;;;;5.32;4.28;;;23.10;99.90;;;;;;5051919;28;20028;-65
2022/05/15 05:34:53;;;;;;;6.10;4.20;;;23.20;99.90;;;;;;5051605;28;20063;-66
2022/05/15 05:37:20;;;;;;;5.47;4.00;;;23.20;99.90;;;;;;5052851;28;20102;-66
2022/05/15 05:39:47;;;;;;;5.50;4.25;;;23.10;99.90;;;;;;5052176;28;20016;-71
2022/05/15 05:42:14;;;;;;;6.07;4.25;;;22.90;99.90;;;;;;5053888;28;20036;-71
2022/05/15 05:44:41;;;;;;;4.20;3.65;;;22.80;99.90;;;;;;5054260;28;20117;-66
2022/05/15 05:47:08;;;;;;;6.55;3.88;;;22.80;99.90;;;;;;5051123;28;20029;-66
2022/05/15 05:49:35;;;;;;;4.68;4.05;;;22.80;99.90;;;;;;5036048;28;20036;-65
2022/05/15 05:52:03;;;;;;;4.93;3.63;;;22.90;99.90;;;;;;5053222;28;20808;-71
2022/05/15 05:54:29;;;;;;;4.55;3.83;;;22.80;99.90;;;;;;5047485;28;20028;-65
2022/05/15 05:56:58;;;;;;;4.50;4.10;;;22.80;99.90;;;;;;5043083;28;20052;-66
2022/05/15 05:59:26;;;;;;;5.80;3.85;;;22.80;99.90;;;;;;5048080;28;20527;-73
2022/05/15 06:01:53;;;;;;;5.53;3.70;;;22.80;99.90;;;;;;5035013;28;20044;-66
2022/05/15 06:07:06;;;;;;;5.72;4.28;;;22.70;99.90;;;;;;5048133;28;20039;-76
2022/05/15 06:09:33;;;;;;;4.28;3.58;;;22.70;99.90;;;;;;5047111;28;20032;-77
2022/05/15 06:12:01;;;;;;;5.47;4.38;;;22.60;99.90;;;;;;5044402;28;20673;-66
2022/05/15 06:14:28;;;;;;;4.82;4.43;;;22.50;99.90;;;;;;5046543;28;20020;-76
2022/05/15 06:16:55;;;;;;;5.38;3.92;;;22.50;99.90;;;;;;5047666;28;20029;-72
2022/05/15 06:19:22;;;;;;;5.45;4.15;;;22.40;99.90;;;;;;5047604;28;20031;-74
2022/05/15 06:21:49;;;;;;;4.43;3.90;;;22.30;99.90;;;;;;5049059;28;20063;-75
2022/05/15 06:24:16;;;;;;;5.85;4.65;;;22.20;99.90;;;;;;5048533;28;20401;-73
2022/05/15 06:26:43;;;;;;;6.57;4.70;;;22.10;99.90;;;;;;5047651;28;20021;-73
2022/05/15 06:29:10;;;;;;;6.47;4.50;;;22.20;99.90;;;;;;5047293;28;20013;-66
2022/05/15 06:31:37;;;;;;;5.40;4.90;;;22.10;99.90;;;;;;5051506;28;20027;-73
2022/05/15 06:34:04;;;;;;;6.07;5.10;;;22.10;99.90;;;;;;5046410;28;20024;-73
2022/05/15 06:36:31;;;;;;;4.80;4.03;;;22.00;99.90;;;;;;5045333;28;20301;-67
2022/05/15 06:38:58;;;;;;;7.60;5.75;;;21.90;99.90;;;;;;5047930;28;20076;-67
2022/05/15 06:41:25;;;;;;;5.30;4.80;;;21.70;99.90;;;;;;5045194;28;20099;-68
2022/05/15 06:43:52;;;;;;;5.07;4.57;;;21.70;99.90;;;;;;5048273;28;20029;-72
2022/05/15 06:46:19;;;;;;;6.00;4.10;;;21.70;99.90;;;;;;5040535;28;20025;-73
2022/05/15 06:48:46;;;;;;;6.50;4.50;;;21.80;99.90;;;;;;5048930;28;20399;-73
2022/05/15 06:51:16;;;;;;;6.68;4.65;;;21.80;99.90;;;;;;5043577;28;20076;-66
2022/05/15 06:53:44;;;;;;;5.07;3.95;;;21.80;99.90;;;;;;5046543;28;20024;-74
2022/05/15 06:58:57;;;;;;;4.32;3.15;;;21.80;99.90;;;;;;5045829;28;20510;-67
2022/05/15 07:01:24;;;;;;;4.75;3.35;;;21.80;99.90;;;;;;5043281;28;20072;-66
2022/05/15 07:03:51;;;;;;;3.55;3.25;;;21.70;99.90;;;;;;5048350;28;20016;-66
2022/05/15 07:06:18;;;;;;;2.80;2.50;;;21.70;99.90;;;;;;5046801;28;20080;-69
2022/05/15 07:08:45;;;;;;;4.53;2.75;;;21.80;99.90;;;;;;5045656;28;20032;-67
2022/05/15 07:11:13;;;;;;;3.45;2.80;;;21.70;99.90;;;;;;5044411;28;20024;-72
2022/05/15 07:13:41;;;;;;;4.55;2.92;;;21.60;99.90;;;;;;5028412;28;20465;-70
2022/05/15 07:16:09;;;;;;;3.10;2.80;;;21.50;99.90;;;;;;5045489;28;20033;-68
2022/05/15 07:18:37;;;;;;;4.20;3.10;;;21.50;99.90;;;;;;5047665;28;20283;-68
2022/05/15 07:21:05;;;;;;;4.90;3.72;;;21.50;99.90;;;;;;5048576;28;20017;-68
2022/05/15 07:23:32;;;;;;;4.10;3.45;;;21.50;99.90;;;;;;5044955;28;20379;-68
2022/05/15 07:25:59;;;;;;;4.68;3.85;;;21.40;99.90;;;;;;5048005;28;20024;-76
2022/05/15 07:28:26;;;;;;;8.45;7.05;;;21.20;99.90;;;;;;5040095;28;20029;-77
2022/05/15 07:30:53;;;;;;;7.38;5.18;;;21.20;99.90;;;;;;5039876;28;20024;-68
2022/05/15 07:33:25;;;;;;;6.85;6.25;;;21.10;99.90;;;;;;5047236;28;20024;-70
2022/05/15 07:35:57;;;;;;;6.22;4.28;;;21.20;99.90;;;;;;5044378;28;20064;-69
2022/05/15 07:38:25;;;;;;;5.40;4.90;;;21.20;99.90;;;;;;5044941;28;20052;-68
2022/05/15 07:40:52;;;;;;;3.72;3.00;;;21.00;99.90;;;;;;5045749;28;20028;-68
2022/05/15 07:43:19;;;;;;;4.07;3.03;;;20.90;99.90;;;;;;5045616;28;20028;-69
2022/05/15 07:45:46;;;;;;;6.80;4.50;;;20.80;99.90;;;;;;5051239;28;20021;-69
2022/05/15 07:48:14;;;;;;;5.35;4.85;;;20.80;99.90;;;;;;5051838;28;20034;-74
2022/05/15 07:50:41;;;;;;;4.50;3.47;;;20.70;99.90;;;;;;5050572;28;20146;-76
2022/05/15 07:53:08;;;;;;;8.63;7.85;;;20.90;99.90;;;;;;5030518;28;20079;-69
2022/05/15 07:55:35;;;;;;;6.20;5.60;;;20.90;99.90;;;;;;5048368;28;20219;-68
2022/05/15 07:58:02;;;;;;;5.47;4.70;;;21.00;99.90;;;;;;5051106;28;20119;-72
2022/05/15 08:00:29;;;;;;;4.43;3.72;;;21.00;99.90;;;;;;5048597;28;20438;-68
2022/05/15 08:03:07;;;;;;;4.47;3.90;;;20.90;99.90;;;;;;5052451;28;20494;-69
2022/05/15 08:08:20;;;;;;;4.22;3.78;;;20.90;99.90;;;;;;5052230;28;20035;-74
2022/05/15 08:10:49;;;;;;;7.05;4.60;;;20.70;99.90;;;;;;5049110;28;20099;-68
2022/05/15 08:13:19;;;;;;;7.47;6.65;;;20.80;99.90;;;;;;5049786;28;20025;-68
2022/05/15 08:15:47;;;;;;;5.97;5.03;;;20.90;99.90;;;;;;5033181;28;20028;-69
2022/05/15 08:23:56;;;;;;;5.60;3.83;;;20.70;99.90;;;;;;5056050;28;20421;-71
2022/05/15 08:26:23;;;;;;;3.85;3.33;;;20.50;99.90;;;;;;5052883;28;20486;-73
2022/05/15 08:28:50;;;;;;;5.03;4.53;;;20.50;99.90;;;;;;5053956;28;20135;-70
2022/05/15 08:31:19;;;;;;;4.47;3.88;;;20.40;99.90;;;;;;5052601;28;20320;-65
2022/05/15 08:33:47;;;;;;;5.15;4.65;;;20.20;99.90;;;;;;5055969;28;20031;-69
2022/05/15 08:36:15;;;;;;;4.15;3.75;;;20.10;99.90;;;;;;5050155;28;20086;-68
2022/05/15 08:38:43;;;;;;;5.03;4.53;;;20.10;99.90;;;;;;5049211;28;20395;-65
2022/05/15 08:41:45;;;;;;;5.00;4.50;;;20.00;99.90;;;;;;5050115;28;20021;-67
2022/05/15 08:44:21;;;;;;;6.40;4.53;;;20.00;99.90;;;;;;4966806;28;20629;-69
2022/05/15 08:47:16;;;;;;;7.28;6.15;;;20.00;99.90;;;;;;4966353;28;20197;-66
2022/05/15 08:49:47;;;;;;;6.55;5.38;;;19.90;99.90;;;;;;4968311;28;20054;-70
2022/05/15 08:52:37;;;;;;;6.10;5.50;;;19.90;99.90;;;;;;4971010;28;20037;-66
2022/05/15 08:55:33;;;;;;;5.22;4.72;;;20.00;99.90;;;;;;4971039;28;20128;-70
2022/05/15 08:58:07;;;;;;;5.82;4.90;;;20.10;99.90;;;;;;4957691;28;20062;-66
2022/05/15 09:00:55;;;;;;;5.78;5.05;;;20.40;99.90;;;;;;4969974;28;20844;-66
2022/05/15 09:03:29;;;;;;;5.15;4.68;;;20.60;99.90;;;;;;4962113;28;20031;-67
2022/05/15 09:06:02;;;;;;;9.20;7.53;;;20.40;99.90;;;;;;4966029;28;20056;-75
2022/05/15 09:09:00;;;;;;;11.55;10.43;;;20.20;99.90;;;;;;4949890;28;20420;-69
2022/05/15 09:11:47;;;;;;;7.38;6.60;;;20.00;99.90;;;;;;4967778;28;20262;-68
2022/05/15 09:14:22;;;;;;;5.65;5.05;;;20.00;99.90;;;;;;4966260;28;20041;-70
2022/05/15 09:17:18;;;;;;;6.70;6.10;;;19.90;99.90;;;;;;4966783;28;20101;-73
2022/05/15 09:19:52;;;;;;;8.93;5.90;;;19.90;99.90;;;;;;4972138;28;20970;-65
2022/05/15 09:22:21;;;;;;;5.55;4.97;;;19.80;99.90;;;;;;5049382;28;20024;-68
2022/05/15 09:24:53;;;;;;;6.43;5.82;;;19.60;99.90;;;;;;5052513;28;20552;-73
2022/05/15 09:27:23;;;;;;;6.95;5.32;;;19.60;99.90;;;;;;5053080;28;20134;-65
2022/05/15 09:30:00;;;;;;;8.10;6.22;;;19.60;99.90;;;;;;5052158;28;20040;-68
2022/05/15 09:32:37;;;;;;;8.18;7.38;;;19.50;99.90;;;;;;5052258;28;20254;-70
2022/05/15 09:35:06;;;;;;;8.98;6.78;;;19.40;99.90;;;;;;5047442;28;20032;-66
2022/05/15 09:40:41;;;;;;;7.25;6.55;;;19.30;99.90;;;;;;5050139;28;20039;-66
2022/05/15 09:43:33;;;;;;;7.88;5.63;;;19.30;99.90;;;;;;5047215;28;20025;-68
2022/05/15 09:46:14;;;;;;;8.15;6.40;;;19.20;99.90;;;;;;5046933;28;20055;-70
2022/05/15 09:48:57;;;;;;;7.63;6.70;;;19.20;99.90;;;;;;5047776;28;20256;-72
2022/05/15 09:51:45;;;;;;;8.20;6.70;;;19.30;99.90;;;;;;5047397;28;20024;-68
2022/05/15 09:54:38;;;;;;;7.95;6.57;;;19.50;99.90;;;;;;5055374;28;20111;-73
2022/05/15 09:57:25;;;;;;;7.82;7.03;;;19.30;99.90;;;;;;4946848;28;20043;-67
2022/05/15 10:00:00;;;;;;;8.60;7.78;;;19.20;99.90;;;;;;4948798;28;20817;-73
2022/05/15 10:02:42;;;;;;;11.07;10.07;;;19.20;99.90;;;;;;4946982;28;20069;-68
2022/05/15 10:05:27;;;;;;;11.18;9.95;;;19.10;99.90;;;;;;4952780;28;20477;-72
2022/05/15 10:08:05;;;;;;;9.85;8.52;;;19.10;99.90;;;;;;4934573;28;20615;-68
2022/05/15 10:10:49;;;;;;;9.15;8.25;;;19.00;99.90;;;;;;4949061;28;20045;-68
2022/05/15 10:13:44;;;;;;;8.07;7.28;;;19.00;99.90;;;;;;4949813;28;20116;-68
2022/05/15 10:16:15;;;;;;;8.88;7.97;;;19.00;99.90;;;;;;4942556;28;20058;-72
2022/05/15 10:19:06;;;;;;;9.52;8.50;;;19.00;99.90;;;;;;4947621;28;20157;-73
2022/05/15 10:21:48;;;;;;;8.35;7.47;;;18.90;99.90;;;;;;4947492;28;20035;-74
2022/05/15 10:24:16;;;;;;;;;;;18.90;99.90;;;;;;4948950;28;20151;-72
2022/05/15 10:27:04;;;;;;;9.60;7.68;;;18.90;99.90;;;;;;4950313;28;20654;-68
2022/05/15 10:29:49;;;;;;;10.10;8.25;;;18.80;99.90;;;;;;4947344;28;20134;-72
2022/05/15 10:32:29;;;;;;;10.15;8.88;;;18.70;99.90;;;;;;4949014;28;20548;-68
2022/05/15 10:34:57;;;;;;;8.93;7.63;;;18.70;99.90;;;;;;5030943;28;20861;-68
2022/05/15 10:37:40;;;;;;;8.35;6.95;;;18.80;99.90;;;;;;5056540;22;20784;-72
2022/05/15 10:40:16;;;;;;;7.50;6.45;;;19.00;99.90;;;;;;5047413;28;20053;-67
2022/05/15 10:43:20;;;;;;;8.35;6.90;;;19.00;99.90;;;;;;5048134;28;20036;-67
2022/05/15 10:46:10;;;;;;;7.53;6.43;;;18.80;99.90;;;;;;5049530;28;20139;-67
2022/05/15 10:49:08;;;;;;;8.95;7.97;;;18.60;99.90;;;;;;5050040;28;20082;-71
2022/05/15 10:52:11;;;;;;;10.48;7.53;;;18.50;99.90;;;;;;5048686;28;20541;-69
2022/05/15 10:58:38;;;;;;;11.15;7.82;;;18.70;99.90;;;;;;5042927;28;20098;-68
2022/05/15 11:01:20;;;;;;;10.73;8.48;;;18.60;99.90;;;;;;5042673;28;20035;-71
2022/05/15 11:04:14;;;;;;;10.17;8.83;;;18.50;99.90;;;;;;5041726;28;20029;-74
2022/05/15 11:06:47;;;;;;;10.10;9.10;;;18.40;99.90;;;;;;5041782;28;20598;-72
2022/05/15 11:09:43;;;;;;;9.95;8.95;;;18.40;99.90;;;;;;5024502;28;20047;-68
2022/05/15 11:12:28;;;;;;;9.60;8.00;;;18.30;99.90;;;;;;5039976;28;20025;-69
2022/05/15 11:15:14;;;;;;;10.07;8.30;;;18.10;99.90;;;;;;5037693;28;20021;-68
2022/05/15 11:17:49;;;;;;;10.07;8.80;;;17.90;99.90;;;;;;5037882;28;20527;-75
2022/05/15 11:20:40;;;;;;;9.18;8.27;;;17.80;99.90;;;;;;5041502;28;20033;-73
2022/05/15 11:23:25;;;;;;;9.50;8.50;;;17.80;99.90;;;;;;4978392;28;20114;-72
2022/05/15 11:26:02;;;;;;;12.00;10.02;;;17.80;99.90;;;;;;4981527;28;20539;-69
2022/05/15 11:28:50;;;;;;;11.77;9.35;;;17.90;99.90;;;;;;4981267;28;20133;-76
2022/05/15 11:31:21;;;;;;;9.57;8.60;;;17.90;99.90;;;;;;4976559;28;20560;-69
2022/05/15 11:33:51;;;;;;;13.75;8.38;;;17.80;99.90;;;;;;4985008;28;20061;-69
2022/05/15 11:36:30;;;;;;;14.70;8.95;;;17.70;99.90;;;;;;4984069;28;20037;-73
2022/05/15 11:39:05;;;;;;;10.43;8.18;;;17.70;99.90;;;;;;4983198;28;20501;-72
2022/05/15 11:41:35;;;;;;;9.63;8.63;;;17.60;99.90;;;;;;4990210;28;20037;-68
2022/05/15 11:44:09;;;;;;;9.90;8.65;;;17.60;99.90;;;;;;4987459;28;20084;-65
2022/05/15 11:46:57;;;;;;;11.32;8.63;;;17.60;99.90;;;;;;4991174;28;20189;-73
2022/05/15 11:49:57;;;;;;;10.30;9.20;;;17.60;99.90;;;;;;4975899;28;20482;-76
2022/05/15 11:52:35;;;;;;;11.00;8.40;;;17.60;99.90;;;;;;4978589;28;20113;-68
2022/05/15 11:55:37;;;;;;;10.95;7.45;;;17.60;99.90;;;;;;4984060;28;20034;-76
2022/05/15 11:58:23;;;;;;;8.98;7.07;;;17.50;99.90;;;;;;4987030;28;20499;-68
2022/05/15 12:01:01;;;;;;;9.82;7.07;;;17.40;99.90;;;;;;5005084;28;20395;-74
2022/05/15 12:03:45;;;;;;;7.88;6.90;;;17.30;99.90;;;;;;5020449;28;20018;-69
2022/05/15 12:06:17;;;;;;;7.82;6.53;;;17.30;99.90;;;;;;5018971;28;20029;-76
2022/05/15 12:08:49;;;;;;;8.75;6.82;;;17.20;99.90;;;;;;5022947;28;20034;-75
2022/05/15 12:11:19;;;;;;;8.60;6.23;;;17.20;99.90;;;;;;5021412;28;20037;-70
2022/05/15 12:13:47;;;;;;;8.23;7.10;;;17.00;99.90;;;;;;5020899;28;20033;-70
2022/05/15 12:16:22;;;;;;;9.32;7.75;;;17.00;99.90;;;;;;5015001;28;20518;-70
2022/05/15 12:19:13;;;;;;;8.13;6.93;;;17.10;99.90;;;;;;5019147;28;20044;-73
2022/05/15 12:21:46;;;;;;;9.20;6.43;;;17.00;99.90;;;;;;5022998;28;20028;-69
2022/05/15 12:24:28;;;;;;;6.82;6.13;;;16.90;99.90;;;;;;5012148;28;20025;-68
2022/05/15 12:27:11;;;;;;;8.83;6.43;;;16.80;99.90;;;;;;5023420;28;20483;-77
2022/05/15 12:29:47;;;;;;;8.02;6.55;;;16.70;99.90;;;;;;5023151;28;20799;-72
2022/05/15 12:32:29;;;;;;;7.05;6.32;;;16.60;99.90;;;;;;5022579;28;20026;-68
2022/05/15 12:34:58;;;;;;;7.68;6.80;;;16.60;99.90;;;;;;5022469;28;20021;-68
2022/05/15 12:37:29;;;;;;;11.02;8.27;;;16.60;99.90;;;;;;5023856;28;20040;-69
2022/05/15 12:39:58;;;;;;;10.65;7.95;;;16.70;99.90;;;;;;5041534;28;20029;-68
2022/05/15 12:42:38;;;;;;;7.07;6.38;;;16.60;99.90;;;;;;5043480;28;20024;-68
2022/05/15 12:45:11;;;;;;;9.77;7.95;;;16.50;99.90;;;;;;5043016;28;20025;-69
2022/05/15 12:47:39;;;;;;;10.05;6.75;;;16.40;99.90;;;;;;5041489;28;20028;-68
2022/05/15 12:50:17;;;;;;;8.25;7.03;;;16.50;99.90;;;;;;5044424;28;20050;-68
2022/05/15 12:52:44;;;;;;;8.77;7.35;;;16.50;99.90;;;;;;5044107;28;20028;-67
2022/05/15 12:55:32;;;;;;;9.50;7.10;;;16.40;99.90;;;;;;5044906;28;20035;-68
2022/05/15 12:58:05;;;;;;;7.72;6.93;;;16.30;99.90;;;;;;5040196;28;20029;-69
2022/05/15 13:00:42;;;;;;;10.75;6.53;;;16.20;99.90;;;;;;5043303;28;20033;-66
2022/05/15 13:03:12;;;;;;;9.70;7.25;;;16.10;99.90;;;;;;5033886;28;20422;-68
2022/05/15 13:05:59;;;;;;;8.48;5.72;;;16.00;99.90;;;;;;5036277;28;20404;-68
2022/05/15 13:08:26;;;;;;;8.40;6.85;;;15.90;99.90;;;;;;5042881;28;20464;-67
2022/05/15 13:10:58;;;;;;;7.97;5.70;;;15.90;99.90;;;;;;5050729;28;20024;-67
2022/05/15 13:13:28;;;;;;;7.68;6.15;;;15.90;99.90;;;;;;5049540;28;20098;-68
2022/05/15 13:15:57;;;;;;;6.10;5.30;;;15.90;99.90;;;;;;5046197;28;20025;-68
2022/05/15 13:18:27;;;;;;;6.15;5.00;;;15.80;99.90;;;;;;4697694;28;10000090;-68
2022/05/15 13:21:01;;;;;;;6.88;5.80;;;15.80;99.90;;;;;;5050393;28;20555;-69
2022/05/15 13:23:36;;;;;;;6.10;4.95;;;15.70;99.90;;;;;;5051567;28;20041;-67
2022/05/15 13:26:05;;;;;;;7.68;5.10;;;15.60;99.90;;;;;;5031909;28;20475;-68
2022/05/15 13:28:32;;;;;;;5.93;4.35;;;15.60;99.90;;;;;;5048314;28;20056;-68
2022/05/15 13:31:00;;;;;;;8.20;4.45;;;15.50;99.90;;;;;;5052545;28;20017;-67
2022/05/15 13:33:29;;;;;;;8.20;4.57;;;15.40;99.90;;;;;;5052008;28;20032;-68